Time;durP1;ratioP1;P1;durP2;ratioP2;P2;SDS_P1;SDS_P2;PMS_P1;PMS_P2;Temp;Humidity;BMP_temperature;BMP_pressure;BME280_temperature;BME280_humidity;BME280_pressure;Samples;Min_cycle;Max_cycle;Signal;HPM_P1;HPM_P2
2022/05/20 00:00:02;;;;;;;23.98;15.95;;;;;;;;;;5025305;28;99931;-73
2022/05/20 00:02:30;;;;;;;23.70;16.52;;;;;;;;;;5030147;27;98707;-73
2022/05/20 00:04:56;;;;;;;23.63;17.40;;;;;;;;;;5023604;28;99053;-73
2022/05/20 00:07:23;;;;;;;24.65;17.38;;;;;;;;;;5009162;28;99383;-74
2022/05/20 00:09:49;;;;;;;21.85;17.90;;;;;;;;;;5010145;28;98490;-73
2022/05/20 00:12:17;;;;;;;22.85;16.40;;;;;;;;;;5010433;28;100907;-72
2022/05/20 00:14:44;;;;;;;22.10;16.48;;;;;;;;;;5011328;28;100960;-73
2022/05/20 00:17:10;;;;;;;22.27;17.63;;;;;;;;;;5009925;28;101271;-73
2022/05/20 00:19:36;;;;;;;27.85;16.95;;;;;;;;;;5009311;28;100193;-73
2022/05/20 00:22:05;;;;;;;17.92;16.02;;;;;;;;;;5009705;28;98869;-73
2022/05/20 00:24:31;;;;;;;23.88;17.08;;;;;;;;;;5009669;28;99143;-73
2022/05/20 00:26:58;;;;;;;22.10;16.10;;;;;;;;;;5008677;28;102206;-73
2022/05/20 00:29:24;;;;;;;28.33;19.35;;;;;;;;;;5009187;28;98593;-73
2022/05/20 00:31:51;;;;;;;17.85;15.82;;;;;;;;;;5009671;28;99694;-73
2022/05/20 00:34:18;;;;;;;20.05;16.35;;;;;;;;;;5008634;28;100023;-73
2022/05/20 00:36:44;;;;;;;24.02;17.30;;;;;;;;;;5012702;28;98963;-73
2022/05/20 00:39:10;;;;;;;25.92;17.92;;;;;;;;;;5018687;27;100383;-73
2022/05/20 00:41:37;;;;;;;25.40;17.45;;;;;;;;;;5008738;28;98581;-73
2022/05/20 00:44:03;;;;;;;18.38;16.15;;;;;;;;;;5009318;28;99002;-73
2022/05/20 00:46:30;;;;;;;18.38;16.38;;;;;;;;;;5008946;28;100190;-73
2022/05/20 00:48:58;;;;;;;21.17;17.17;;;;;;;;;;5007775;28;99117;-73
2022/05/20 00:51:45;;;;;;;25.65;18.23;;;;;;;;;;5009320;28;100460;-73
2022/05/20 00:54:15;;;;;;;28.83;19.98;;;;;;;;;;5009111;28;100695;-73
2022/05/20 00:56:44;;;;;;;29.42;21.17;;;;;;;;;;5009354;28;97807;-73
2022/05/20 00:59:13;;;;;;;24.70;19.85;;;;;;;;;;5012327;28;98941;-73
2022/05/20 01:01:40;;;;;;;21.45;18.95;;;;;;;;;;5009007;28;98596;-73
2022/05/20 01:04:06;;;;;;;25.88;18.45;;;;;;;;;;5008217;28;99927;-73
2022/05/20 01:06:32;;;;;;;32.42;20.25;;;;;;;;;;5007507;28;100347;-73
2022/05/20 01:08:59;;;;;;;30.02;20.05;;;;;;;;;;5008783;28;99070;-74
2022/05/20 01:11:26;;;;;;;26.73;19.95;;;;;;;;;;5008171;28;100393;-73
2022/05/20 01:13:52;;;;;;;28.38;20.15;;;;;;;;;;5009376;28;100403;-73
2022/05/20 01:16:19;;;;;;;25.25;19.40;;;;;;;;;;5008614;28;98947;-73
2022/05/20 01:18:46;;;;;;;23.38;20.15;;;;;;;;;;5008787;28;100162;-73
2022/05/20 01:21:13;;;;;;;24.40;21.30;;;;;;;;;;5012341;28;98775;-73
2022/05/20 01:23:40;;;;;;;25.13;19.63;;;;;;;;;;5008320;28;99361;-73
2022/05/20 01:26:06;;;;;;;30.75;20.73;;;;;;;;;;5014518;27;100303;-73
2022/05/20 01:28:33;;;;;;;23.25;18.42;;;;;;;;;;5008181;28;99319;-73
2022/05/20 01:31:09;;;;;;;24.23;20.70;;;;;;;;;;5008236;28;100743;-73
2022/05/20 01:33:46;;;;;;;24.15;18.85;;;;;;;;;;5007872;28;98551;-73
2022/05/20 01:36:16;;;;;;;23.27;19.20;;;;;;;;;;5021020;28;98610;-73
2022/05/20 01:38:43;;;;;;;21.45;18.50;;;;;;;;;;5037142;27;99169;-73
2022/05/20 01:41:11;;;;;;;28.05;20.80;;;;;;;;;;5048067;27;99620;-73
2022/05/20 01:43:38;;;;;;;21.23;18.90;;;;;;;;;;5052300;27;98531;-73
2022/05/20 01:46:13;;;;;;;25.85;19.42;;;;;;;;;;5048173;27;98653;-73
2022/05/20 01:48:42;;;;;;;23.48;19.83;;;;;;;;;;5028366;28;98580;-73
2022/05/20 01:51:11;;;;;;;35.83;22.13;;;;;;;;;;5028737;27;100003;-73
2022/05/20 01:53:40;;;;;;;25.20;20.48;;;;;;;;;;5008564;28;101538;-73
2022/05/20 01:56:11;;;;;;;29.75;23.30;;;;;;;;;;5008747;28;98551;-73
2022/05/20 01:58:45;;;;;;;34.28;23.02;;;;;;;;;;5007616;28;100531;-74
2022/05/20 02:01:19;;;;;;;27.35;21.75;;;;;;;;;;5008587;28;99093;-73
2022/05/20 02:03:50;;;;;;;25.58;20.40;;;;;;;;;;5012235;28;98772;-74
2022/05/20 02:06:19;;;;;;;24.73;20.60;;;;;;;;;;5007453;28;101295;-73
2022/05/20 02:08:50;;;;;;;25.70;20.80;;;;;;;;;;5008575;28;98602;-73
2022/05/20 02:11:20;;;;;;;25.30;20.85;;;;;;;;;;5008802;28;100974;-73
2022/05/20 02:13:49;;;;;;;25.73;20.23;;;;;;;;;;5007491;28;99992;-73
2022/05/20 02:16:18;;;;;;;26.92;20.42;;;;;;;;;;5014543;27;98687;-73
2022/05/20 02:18:49;;;;;;;32.55;21.90;;;;;;;;;;5027958;28;99933;-74
2022/05/20 02:21:17;;;;;;;23.38;18.95;;;;;;;;;;5019288;28;99709;-73
2022/05/20 02:23:46;;;;;;;25.77;19.88;;;;;;;;;;5030867;27;98569;-74
2022/05/20 02:26:14;;;;;;;26.25;19.85;;;;;;;;;;5034903;28;100556;-73
2022/05/20 02:28:43;;;;;;;21.17;18.70;;;;;;;;;;5030924;27;98673;-73
2022/05/20 02:31:11;;;;;;;19.23;17.33;;;;;;;;;;5031447;28;100178;-73
2022/05/20 02:33:38;;;;;;;19.23;17.30;;;;;;;;;;5030428;28;100205;-73
2022/05/20 02:36:05;;;;;;;20.00;17.90;;;;;;;;;;5032408;28;97791;-73
2022/05/20 02:38:32;;;;;;;20.83;17.95;;;;;;;;;;5038149;27;98530;-73
2022/05/20 02:40:58;;;;;;;17.70;15.90;;;;;;;;;;5050578;27;99679;-73
2022/05/20 02:43:25;;;;;;;20.92;16.60;;;;;;;;;;5051125;27;99306;-73
2022/05/20 02:45:52;;;;;;;17.90;16.13;;;;;;;;;;5043459;27;99800;-73
2022/05/20 02:48:20;;;;;;;18.02;16.35;;;;;;;;;;5017274;28;100276;-74
2022/05/20 02:50:47;;;;;;;18.90;17.05;;;;;;;;;;5030838;28;99171;-73
2022/05/20 02:53:13;;;;;;;17.65;15.82;;;;;;;;;;5030894;28;99007;-73
2022/05/20 02:55:39;;;;;;;20.50;16.35;;;;;;;;;;5017648;28;98609;-73
2022/05/20 02:58:06;;;;;;;17.75;15.90;;;;;;;;;;5011285;28;101208;-73
2022/05/20 03:06:02;;;;;;;16.83;15.10;;;;;;;;;;5010844;28;98561;-74
2022/05/20 03:08:29;;;;;;;17.90;16.10;;;;;;;;;;5009764;28;101025;-73
2022/05/20 03:10:55;;;;;;;17.20;15.43;;;;;;;;;;5013175;28;99108;-73
2022/05/20 03:13:22;;;;;;;15.57;13.95;;;;;;;;;;5011088;28;100612;-74
2022/05/20 03:15:48;;;;;;;17.15;14.90;;;;;;;;;;5010039;28;98618;-73
2022/05/20 03:18:14;;;;;;;17.05;15.35;;;;;;;;;;5010758;28;100016;-73
2022/05/20 03:20:41;;;;;;;15.85;13.90;;;;;;;;;;5010593;28;100414;-74
2022/05/20 03:23:09;;;;;;;20.67;14.93;;;;;;;;;;5019486;28;99893;-74
2022/05/20 03:25:38;;;;;;;16.77;15.10;;;;;;;;;;5018368;28;99945;-74
2022/05/20 03:28:10;;;;;;;16.58;15.00;;;;;;;;;;5028469;27;100037;-74
2022/05/20 03:30:36;;;;;;;15.80;14.18;;;;;;;;;;5027718;28;98644;-74
2022/05/20 03:33:02;;;;;;;17.17;15.13;;;;;;;;;;5031262;28;100369;-74
2022/05/20 03:35:29;;;;;;;15.02;13.50;;;;;;;;;;5026698;28;98915;-73
2022/05/20 03:37:55;;;;;;;15.23;13.18;;;;;;;;;;5015157;27;100194;-74
2022/05/20 03:40:22;;;;;;;14.35;12.85;;;;;;;;;;5049899;27;99432;-74
2022/05/20 03:42:48;;;;;;;14.23;12.70;;;;;;;;;;5050431;27;98547;-73
2022/05/20 03:45:14;;;;;;;14.65;12.57;;;;;;;;;;5048703;27;99979;-74
2022/05/20 03:47:41;;;;;;;16.25;14.25;;;;;;;;;;5009926;28;100318;-74
2022/05/20 03:50:06;;;;;;;15.02;13.45;;;;;;;;;;5010656;28;97799;-74
2022/05/20 03:52:32;;;;;;;15.38;13.73;;;;;;;;;;5009384;28;100938;-74
2022/05/20 03:54:59;;;;;;;17.40;13.60;;;;;;;;;;5013013;28;99520;-73
2022/05/20 03:57:25;;;;;;;15.02;13.52;;;;;;;;;;5009390;28;99327;-74
2022/05/20 03:59:52;;;;;;;18.83;15.43;;;;;;;;;;5009048;28;100320;-74
2022/05/20 04:02:18;;;;;;;14.45;13.18;;;;;;;;;;5010884;28;98574;-74
2022/05/20 04:04:46;;;;;;;17.38;15.57;;;;;;;;;;5029970;28;100102;-74
2022/05/20 04:07:14;;;;;;;20.33;17.20;;;;;;;;;;5028940;28;100270;-74
2022/05/20 04:09:41;;;;;;;19.63;15.40;;;;;;;;;;5029722;27;98983;-74
2022/05/20 04:12:17;;;;;;;17.38;15.68;;;;;;;;;;5026434;28;99875;-74
2022/05/20 04:14:44;;;;;;;16.80;15.05;;;;;;;;;;5033292;28;99382;-74
2022/05/20 04:17:10;;;;;;;15.43;12.10;;;;;;;;;;5029769;28;98503;-74
2022/05/20 04:19:37;;;;;;;11.88;10.85;;;;;;;;;;5024984;28;100408;-74
2022/05/20 04:22:05;;;;;;;12.43;11.32;;;;;;;;;;5009085;28;99268;-74
2022/05/20 04:24:32;;;;;;;12.77;11.30;;;;;;;;;;5011215;28;100884;-74
2022/05/20 04:26:58;;;;;;;12.68;11.57;;;;;;;;;;5009002;28;100270;-74
2022/05/20 04:29:24;;;;;;;12.77;11.52;;;;;;;;;;5009151;28;98534;-74
2022/05/20 04:31:51;;;;;;;15.23;13.73;;;;;;;;;;5009352;28;101161;-74
2022/05/20 04:34:18;;;;;;;19.98;15.00;;;;;;;;;;5008572;28;100261;-74
2022/05/20 04:36:44;;;;;;;28.02;15.02;;;;;;;;;;5016726;28;98586;-73
2022/05/20 04:39:11;;;;;;;23.45;16.33;;;;;;;;;;5036202;27;99570;-74
2022/05/20 04:47:09;;;;;;;61.03;18.35;;;;;;;;;;5018452;28;100072;-74
2022/05/20 04:49:38;;;;;;;84.60;16.65;;;;;;;;;;5029501;28;98669;-75
2022/05/20 04:52:04;;;;;;;97.28;16.52;;;;;;;;;;5029307;28;100029;-72
2022/05/20 04:57:32;;;;;;;88.95;14.80;;;;;;;;;;5009634;28;99135;-73
2022/05/20 05:00:10;;;;;;;44.88;14.18;;;;;;;;;;5012460;28;99931;-73
2022/05/20 05:02:37;;;;;;;34.50;14.05;;;;;;;;;;5007301;27;98747;-73
2022/05/20 05:05:04;;;;;;;35.20;13.85;;;;;;;;;;5016551;28;100051;-74
2022/05/20 05:07:31;;;;;;;34.58;12.57;;;;;;;;;;5029082;28;100634;-73
2022/05/20 05:09:58;;;;;;;25.83;11.07;;;;;;;;;;5012576;28;98606;-75
2022/05/20 05:12:25;;;;;;;21.15;11.95;;;;;;;;;;5008606;28;99246;-75
2022/05/20 05:14:52;;;;;;;20.77;12.60;;;;;;;;;;5009028;28;100084;-72
2022/05/20 05:20:09;;;;;;;12.98;11.45;;;;;;;;;;5008344;28;99220;-74
2022/05/20 05:22:35;;;;;;;14.70;13.20;;;;;;;;;;5012494;28;99532;-73
2022/05/20 05:25:07;;;;;;;13.73;12.32;;;;;;;;;;5009239;28;100426;-73
2022/05/20 05:27:33;;;;;;;17.67;13.45;;;;;;;;;;5018293;27;100350;-71
2022/05/20 05:30:00;;;;;;;12.93;11.88;;;;;;;;;;5024819;28;97922;-74
2022/05/20 05:32:26;;;;;;;15.15;13.65;;;;;;;;;;5011042;28;99659;-74
2022/05/20 05:34:53;;;;;;;18.15;13.88;;;;;;;;;;5011602;28;99441;-74
2022/05/20 05:37:19;;;;;;;14.63;13.13;;;;;;;;;;5013363;28;100865;-74
2022/05/20 05:39:46;;;;;;;14.32;12.95;;;;;;;;;;5012093;28;100782;-74
2022/05/20 05:42:12;;;;;;;14.85;13.57;;;;;;;;;;5007720;28;99370;-75
2022/05/20 05:44:39;;;;;;;14.73;13.43;;;;;;;;;;5020433;27;99397;-74
2022/05/20 05:47:05;;;;;;;19.00;14.77;;;;;;;;;;5008168;28;99747;-74
2022/05/20 05:49:31;;;;;;;18.17;16.38;;;;;;;;;;5007888;28;98523;-74
2022/05/20 05:51:58;;;;;;;21.52;16.35;;;;;;;;;;5011813;28;99740;-74
2022/05/20 05:54:24;;;;;;;17.42;15.68;;;;;;;;;;5014676;28;99445;-74
2022/05/20 05:56:50;;;;;;;15.05;13.60;;;;;;;;;;5018244;28;99616;-74
2022/05/20 05:59:17;;;;;;;16.23;14.80;;;;;;;;;;5018714;28;99708;-74
2022/05/20 06:01:43;;;;;;;17.60;15.68;;;;;;;;;;5020379;27;100143;-74
2022/05/20 06:04:09;;;;;;;16.77;15.27;;;;;;;;;;5032748;27;98509;-74
2022/05/20 06:06:36;;;;;;;17.85;16.13;;;;;;;;;;5021807;28;99501;-74
2022/05/20 06:09:02;;;;;;;18.98;14.45;;;;;;;;;;5014781;28;99130;-73
2022/05/20 06:11:29;;;;;;;19.50;14.60;;;;;;;;;;5016210;28;100079;-74
2022/05/20 06:13:56;;;;;;;17.77;13.73;;;;;;;;;;5023533;28;100799;-74
2022/05/20 06:16:22;;;;;;;16.27;12.80;;;;;;;;;;5017053;28;98629;-74
2022/05/20 06:18:51;;;;;;;19.00;13.90;;;;;;;;;;5024831;27;99157;-74
2022/05/20 06:21:17;;;;;;;14.88;12.10;;;;;;;;;;5018686;27;100194;-74
2022/05/20 06:23:44;;;;;;;19.73;11.80;;;;;;;;;;5014968;27;98554;-74
2022/05/20 06:26:10;;;;;;;12.63;10.40;;;;;;;;;;5025603;28;100648;-74
2022/05/20 06:28:44;;;;;;;13.73;11.30;;;;;;;;;;5016663;28;100091;-75
2022/05/20 06:31:10;;;;;;;16.70;12.40;;;;;;;;;;5013914;28;100055;-75
2022/05/20 06:33:37;;;;;;;13.15;11.98;;;;;;;;;;5012842;28;101239;-74
2022/05/20 06:41:34;;;;;;;13.77;11.68;;;;;;;;;;5026244;27;99677;-74
2022/05/20 06:44:02;;;;;;;15.35;10.00;;;;;;;;;;5023435;27;97878;-74
2022/05/20 06:46:28;;;;;;;13.02;11.10;;;;;;;;;;5018437;28;98900;-74
2022/05/20 06:48:58;;;;;;;11.85;10.60;;;;;;;;;;5017414;28;99285;-75
2022/05/20 06:51:30;;;;;;;11.73;9.68;;;;;;;;;;5024248;28;99866;-74
2022/05/20 06:53:58;;;;;;;13.98;8.82;;;;;;;;;;5014148;28;100948;-75
2022/05/20 06:56:24;;;;;;;10.05;9.02;;;;;;;;;;5015623;28;98570;-75
2022/05/20 06:58:51;;;;;;;12.30;9.65;;;;;;;;;;5018985;28;100450;-75
2022/05/20 07:01:17;;;;;;;10.25;7.65;;;;;;;;;;5022160;28;100354;-75
2022/05/20 07:03:44;;;;;;;8.93;7.22;;;;;;;;;;5017505;28;98794;-75
2022/05/20 07:06:12;;;;;;;9.95;6.63;;;;;;;;;;5028173;28;99907;-75
2022/05/20 07:08:38;;;;;;;8.85;7.85;;;;;;;;;;5011863;28;100173;-75
2022/05/20 07:11:07;;;;;;;8.10;7.15;;;;;;;;;;5014577;28;98971;-75
2022/05/20 07:13:39;;;;;;;9.65;8.13;;;;;;;;;;5020814;28;100634;-74
2022/05/20 07:16:05;;;;;;;8.50;7.45;;;;;;;;;;5017147;27;99810;-74
2022/05/20 07:18:34;;;;;;;8.15;7.35;;;;;;;;;;5021458;28;100848;-74
2022/05/20 07:21:01;;;;;;;7.97;7.28;;;;;;;;;;5015089;27;100304;-75
2022/05/20 07:23:29;;;;;;;15.20;7.78;;;;;;;;;;5030513;28;98626;-75
2022/05/20 07:25:56;;;;;;;8.10;7.35;;;;;;;;;;5028014;28;99569;-75
2022/05/20 07:28:23;;;;;;;10.90;8.27;;;;;;;;;;5012856;28;100418;-75
2022/05/20 07:30:49;;;;;;;8.15;7.40;;;;;;;;;;5009904;28;99641;-74
2022/05/20 07:33:16;;;;;;;8.57;7.25;;;;;;;;;;5022731;28;99140;-75
2022/05/20 07:35:42;;;;;;;9.85;7.90;;;;;;;;;;5010438;28;98621;-74
2022/05/20 07:38:09;;;;;;;9.63;7.18;;;;;;;;;;5020783;27;100379;-75
2022/05/20 07:40:35;;;;;;;10.07;7.28;;;;;;;;;;5050514;27;100859;-75
2022/05/20 07:43:08;;;;;;;10.48;8.02;;;;;;;;;;5050629;27;98601;-75
2022/05/20 07:45:34;;;;;;;9.25;7.75;;;;;;;;;;5051181;27;99942;-75
2022/05/20 07:48:00;;;;;;;7.97;6.72;;;;;;;;;;5034624;27;100910;-74
2022/05/20 07:50:27;;;;;;;12.18;7.30;;;;;;;;;;5027872;28;98727;-75
2022/05/20 07:55:43;;;;;;;12.57;8.50;;;;;;;;;;5033906;28;100244;-74
2022/05/20 07:58:11;;;;;;;9.23;7.93;;;;;;;;;;5018783;27;99871;-75
2022/05/20 08:00:38;;;;;;;11.80;7.55;;;;;;;;;;5009955;28;98725;-74
2022/05/20 08:03:05;;;;;;;9.20;7.07;;;;;;;;;;5013178;28;98606;-74
2022/05/20 08:05:31;;;;;;;10.13;7.10;;;;;;;;;;5009675;28;99988;-74
2022/05/20 08:08:00;;;;;;;9.15;6.45;;;;;;;;;;5011028;28;100681;-75
2022/05/20 08:10:28;;;;;;;8.63;6.47;;;;;;;;;;5007288;28;99523;-75
2022/05/20 08:12:56;;;;;;;11.98;7.47;;;;;;;;;;5014757;28;98925;-75
2022/05/20 08:15:23;;;;;;;7.82;6.95;;;;;;;;;;5024701;27;100104;-75
2022/05/20 08:17:49;;;;;;;8.75;7.82;;;;;;;;;;5023200;28;98563;-74
2022/05/20 08:20:25;;;;;;;11.60;7.85;;;;;;;;;;5013850;27;100178;-74
2022/05/20 08:22:53;;;;;;;10.23;7.03;;;;;;;;;;5016320;28;97893;-74
2022/05/20 08:25:20;;;;;;;10.20;6.68;;;;;;;;;;5007785;28;98631;-74
2022/05/20 08:27:46;;;;;;;10.88;6.93;;;;;;;;;;5012859;27;100330;-74
2022/05/20 08:30:15;;;;;;;8.70;6.45;;;;;;;;;;5025289;28;100621;-76
2022/05/20 08:32:41;;;;;;;7.00;6.28;;;;;;;;;;5024783;27;101526;-76
2022/05/20 08:35:10;;;;;;;8.20;6.07;;;;;;;;;;5009564;28;100331;-76
2022/05/20 08:37:40;;;;;;;7.03;5.40;;;;;;;;;;5014459;27;98565;-76
2022/05/20 08:40:11;;;;;;;9.68;6.68;;;;;;;;;;5022324;27;100263;-76
2022/05/20 08:42:38;;;;;;;8.75;7.00;;;;;;;;;;5023853;28;98631;-76
2022/05/20 08:45:05;;;;;;;7.97;6.00;;;;;;;;;;5009997;28;99887;-76
2022/05/20 08:47:42;;;;;;;5.93;4.60;;;;;;;;;;5009359;28;99541;-76
2022/05/20 08:50:20;;;;;;;8.23;5.43;;;;;;;;;;5010207;28;98629;-76
2022/05/20 08:52:47;;;;;;;9.93;6.75;;;;;;;;;;5010136;28;100296;-76
2022/05/20 08:55:14;;;;;;;10.88;6.15;;;;;;;;;;5008282;28;100704;-76
2022/05/20 08:57:45;;;;;;;7.72;5.70;;;;;;;;;;5013029;28;100792;-76
2022/05/20 09:00:12;;;;;;;6.70;5.65;;;;;;;;;;5014305;28;100069;-77
2022/05/20 09:02:40;;;;;;;6.43;5.38;;;;;;;;;;5009089;28;98519;-76
2022/05/20 09:05:14;;;;;;;8.63;6.88;;;;;;;;;;5009748;28;100015;-77
2022/05/20 09:07:55;;;;;;;7.15;5.60;;;;;;;;;;5008779;28;100535;-78
2022/05/20 09:10:36;;;;;;;6.55;4.75;;;;;;;;;;5009675;28;98843;-79
2022/05/20 09:13:07;;;;;;;9.35;5.30;;;;;;;;;;5014913;28;99889;-77
2022/05/20 09:15:44;;;;;;;7.10;5.53;;;;;;;;;;5016761;28;100559;-77
2022/05/20 09:18:12;;;;;;;5.78;4.00;;;;;;;;;;5028185;28;98560;-78
2022/05/20 09:20:44;;;;;;;8.48;4.22;;;;;;;;;;5009920;28;99952;-79
2022/05/20 09:23:11;;;;;;;7.30;5.75;;;;;;;;;;5012909;28;99686;-80
2022/05/20 09:25:44;;;;;;;12.45;5.72;;;;;;;;;;5009531;28;99876;-79
2022/05/20 09:28:13;;;;;;;14.05;6.07;;;;;;;;;;5008674;28;100942;-78
2022/05/20 09:30:41;;;;;;;9.35;5.47;;;;;;;;;;5008859;28;98803;-74
2022/05/20 09:33:23;;;;;;;6.97;4.85;;;;;;;;;;5010182;28;100002;-75
2022/05/20 09:36:00;;;;;;;7.20;5.32;;;;;;;;;;5007357;28;100241;-77
2022/05/20 09:38:47;;;;;;;9.55;5.28;;;;;;;;;;5014260;27;97913;-80
2022/05/20 09:41:18;;;;;;;13.15;6.75;;;;;;;;;;5016674;28;99079;-75
2022/05/20 09:43:51;;;;;;;8.90;5.57;;;;;;;;;;5004852;27;100526;-75
2022/05/20 09:46:39;;;;;;;10.10;5.25;;;;;;;;;;5017273;27;99316;-76
2022/05/20 09:49:11;;;;;;;8.23;5.28;;;;;;;;;;5009349;28;99925;-77
2022/05/20 09:51:40;;;;;;;7.82;4.75;;;;;;;;;;5007817;27;100222;-76
2022/05/20 09:54:26;;;;;;;9.20;5.78;;;;;;;;;;5010345;28;99235;-77
2022/05/20 09:57:13;;;;;;;6.25;4.70;;;;;;;;;;5018339;27;100120;-81
2022/05/20 09:59:48;;;;;;;8.45;5.47;;;;;;;;;;5010801;28;98592;-80
2022/05/20 10:02:27;;;;;;;9.38;5.35;;;;;;;;;;5020594;27;99851;-81
2022/05/20 10:05:04;;;;;;;12.93;6.15;;;;;;;;;;5015852;28;98746;-80
2022/05/20 10:07:51;;;;;;;9.27;5.07;;;;;;;;;;5014153;27;98610;-79
2022/05/20 10:10:35;;;;;;;6.85;4.78;;;;;;;;;;5011736;28;99570;-77
2022/05/20 10:13:04;;;;;;;11.73;5.82;;;;;;;;;;5008604;28;99263;-76
2022/05/20 10:15:40;;;;;;;10.30;4.68;;;;;;;;;;5011932;27;100841;-76
2022/05/20 10:18:12;;;;;;;6.22;4.82;;;;;;;;;;5013919;28;100031;-74
2022/05/20 10:20:51;;;;;;;6.88;5.38;;;;;;;;;;5014445;27;100305;-75
2022/05/20 10:23:21;;;;;;;6.05;5.45;;;;;;;;;;5008851;28;99790;-75
2022/05/20 10:25:53;;;;;;;8.55;5.88;;;;;;;;;;5010580;27;99464;-76
2022/05/20 10:33:59;;;;;;;11.43;5.60;;;;;;;;;;5008085;28;98545;-76
2022/05/20 10:36:28;;;;;;;12.23;6.05;;;;;;;;;;5008568;28;99625;-76
2022/05/20 10:39:08;;;;;;;7.10;5.35;;;;;;;;;;5009557;28;101001;-76
2022/05/20 10:42:02;;;;;;;8.65;5.07;;;;;;;;;;5032412;28;98582;-76
2022/05/20 10:50:24;;;;;;;9.15;5.20;;;;;;;;;;5028616;28;99229;-76
2022/05/20 10:52:55;;;;;;;7.90;4.82;;;;;;;;;;5012636;27;99123;-76
2022/05/20 10:55:30;;;;;;;11.98;6.05;;;;;;;;;;5021848;28;99970;-77
2022/05/20 10:58:10;;;;;;;11.30;5.80;;;;;;;;;;5023853;28;99905;-78
2022/05/20 11:00:50;;;;;;;7.40;5.32;;;;;;;;;;4996019;28;102051;-76
2022/05/20 11:03:26;;;;;;;7.88;5.03;;;;;;;;;;5043477;27;98639;-73
2022/05/20 11:06:03;;;;;;;7.93;5.60;;;;;;;;;;5029383;27;100030;-77
2022/05/20 11:08:29;;;;;;;12.65;5.38;;;;;;;;;;5015873;28;100243;-77
2022/05/20 11:11:02;;;;;;;7.57;6.47;;;;;;;;;;5024177;28;99169;-76
2022/05/20 11:13:47;;;;;;;10.30;6.35;;;;;;;;;;5023225;28;100287;-77
2022/05/20 11:16:32;;;;;;;8.30;5.95;;;;;;;;;;5010386;28;100170;-76
2022/05/20 11:19:15;;;;;;;13.80;5.93;;;;;;;;;;5014378;28;99060;-76
2022/05/20 11:21:42;;;;;;;8.40;6.50;;;;;;;;;;5010240;28;100266;-77
2022/05/20 11:24:27;;;;;;;17.13;5.72;;;;;;;;;;5012970;28;98111;-76
2022/05/20 11:26:53;;;;;;;9.55;5.65;;;;;;;;;;5022832;27;99301;-77
2022/05/20 11:29:47;;;;;;;7.32;5.03;;;;;;;;;;5027144;27;100145;-74
2022/05/20 11:32:34;;;;;;;9.32;5.40;;;;;;;;;;5023893;28;99613;-75
2022/05/20 11:35:15;;;;;;;7.40;5.22;;;;;;;;;;4991840;28;100802;-78
2022/05/20 11:37:42;;;;;;;7.95;5.15;;;;;;;;;;5011271;28;100279;-76
2022/05/20 11:40:25;;;;;;;5.65;4.07;;;;;;;;;;4994210;28;98626;-76
2022/05/20 11:43:21;;;;;;;6.55;4.63;;;;;;;;;;5013428;28;99261;-76
2022/05/20 11:45:48;;;;;;;7.95;5.65;;;;;;;;;;4946511;28;100972;-76
2022/05/20 11:48:23;;;;;;;6.75;4.95;;;;;;;;;;5023874;27;99928;-76
2022/05/20 11:51:01;;;;;;;5.93;4.53;;;;;;;;;;5019373;27;98781;-76
2022/05/20 11:53:42;;;;;;;5.00;4.53;;;;;;;;;;5019742;28;98799;-75
2022/05/20 11:56:14;;;;;;;10.25;5.20;;;;;;;;;;5019174;27;100457;-76
2022/05/20 11:59:07;;;;;;;8.07;5.50;;;;;;;;;;5017529;28;100976;-76
2022/05/20 12:01:35;;;;;;;5.28;4.78;;;;;;;;;;4991734;28;99571;-76
2022/05/20 12:04:06;;;;;;;11.20;4.97;;;;;;;;;;5014731;28;100024;-76
2022/05/20 12:06:36;;;;;;;5.88;4.30;;;;;;;;;;5025687;27;99635;-76
2022/05/20 12:09:04;;;;;;;9.60;5.88;;;;;;;;;;5021896;27;99984;-76
2022/05/20 12:11:35;;;;;;;22.50;6.95;;;;;;;;;;5012614;28;100251;-76
2022/05/20 12:14:04;;;;;;;14.93;6.30;;;;;;;;;;5015236;27;98699;-75
2022/05/20 12:16:32;;;;;;;13.35;6.78;;;;;;;;;;5022868;28;99960;-75
2022/05/20 12:24:33;;;;;;;10.70;5.70;;;;;;;;;;5009372;28;100002;-76
2022/05/20 12:27:00;;;;;;;9.85;6.80;;;;;;;;;;5021968;28;100416;-75
2022/05/20 12:29:35;;;;;;;8.15;6.60;;;;;;;;;;5012928;28;98571;-75
2022/05/20 12:32:21;;;;;;;8.15;7.15;;;;;;;;;;5012256;28;100320;-76
2022/05/20 12:34:55;;;;;;;10.77;7.20;;;;;;;;;;5017418;28;98570;-77
2022/05/20 12:37:40;;;;;;;13.07;6.70;;;;;;;;;;5024806;28;100002;-76
2022/05/20 12:40:28;;;;;;;8.32;7.53;;;;;;;;;;5014574;28;99450;-76
2022/05/20 12:42:59;;;;;;;15.80;9.13;;;;;;;;;;5009444;28;97923;-77
2022/05/20 12:45:27;;;;;;;12.45;9.23;;;;;;;;;;5008832;28;98782;-75
2022/05/20 12:47:54;;;;;;;19.00;11.63;;;;;;;;;;5017650;28;100252;-74
2022/05/20 12:50:23;;;;;;;24.73;11.70;;;;;;;;;;5015367;28;100329;-79
2022/05/20 12:52:51;;;;;;;19.05;14.00;;;;;;;;;;5020169;28;100280;-82
2022/05/20 12:55:24;;;;;;;16.08;12.88;;;;;;;;;;5018070;28;99000;-83
2022/05/20 12:57:54;;;;;;;20.25;14.88;;;;;;;;;;5016499;27;99394;-86
2022/05/20 13:00:33;;;;;;;38.75;18.90;;;;;;;;;;5009525;27;102020;-82
2022/05/20 13:03:01;;;;;;;42.58;23.58;;;;;;;;;;5013693;28;99735;-83
2022/05/20 13:05:35;;;;;;;47.10;23.15;;;;;;;;;;5023872;28;99887;-82
2022/05/20 13:08:03;;;;;;;27.25;18.73;;;;;;;;;;5016425;27;100177;-81
2022/05/20 13:10:37;;;;;;;44.05;21.92;;;;;;;;;;5016446;28;98595;-80
2022/05/20 13:13:07;;;;;;;37.42;22.73;;;;;;;;;;5011764;28;99184;-80
2022/05/20 13:15:50;;;;;;;36.85;20.33;;;;;;;;;;5007662;28;99726;-83
2022/05/20 13:18:18;;;;;;;34.42;22.20;;;;;;;;;;5011025;28;100672;-84
2022/05/20 13:20:46;;;;;;;29.23;20.35;;;;;;;;;;5022966;27;101209;-84
2022/05/20 13:23:17;;;;;;;27.75;18.80;;;;;;;;;;5019858;27;101580;-83
2022/05/20 13:25:44;;;;;;;26.67;17.48;;;;;;;;;;5014416;28;99963;-83
2022/05/20 13:28:10;;;;;;;23.80;17.30;;;;;;;;;;5013608;28;100337;-82
2022/05/20 13:30:37;;;;;;;23.23;17.50;;;;;;;;;;5018387;28;98729;-83
2022/05/20 13:33:05;;;;;;;24.88;16.60;;;;;;;;;;5014377;28;100017;-81
2022/05/20 13:35:48;;;;;;;31.92;16.75;;;;;;;;;;5010327;28;101786;-81
2022/05/20 13:38:14;;;;;;;;;;;;;;;;;;5022775;28;100188;-83
2022/05/20 13:40:42;;;;;;;30.27;18.38;;;;;;;;;;5033488;27;131286;-78
2022/05/20 13:43:10;;;;;;;30.17;20.98;;;;;;;;;;5008243;28;98692;-83
2022/05/20 13:51:12;;;;;;;26.80;19.10;;;;;;;;;;5008364;28;98580;-85
2022/05/20 13:53:40;;;;;;;31.70;20.88;;;;;;;;;;5014592;28;100038;-84
2022/05/20 13:56:07;;;;;;;29.60;19.77;;;;;;;;;;5025669;28;100209;-75
2022/05/20 13:58:35;;;;;;;17.88;13.70;;;;;;;;;;5029581;28;97796;-76
2022/05/20 14:01:03;;;;;;;31.17;19.85;;;;;;;;;;5008282;28;100156;-75
2022/05/20 14:03:37;;;;;;;30.90;20.20;;;;;;;;;;5012120;28;101450;-75
2022/05/20 14:06:05;;;;;;;25.55;15.75;;;;;;;;;;5014796;28;99798;-75
2022/05/20 14:08:36;;;;;;;40.72;25.13;;;;;;;;;;5008138;28;99946;-76
2022/05/20 14:11:04;;;;;;;24.40;17.30;;;;;;;;;;5017350;27;98884;-76
2022/05/20 14:13:36;;;;;;;37.38;22.02;;;;;;;;;;5008460;28;100503;-76
2022/05/20 14:16:08;;;;;;;45.80;23.52;;;;;;;;;;5011052;28;100218;-76
2022/05/20 14:18:38;;;;;;;45.72;24.50;;;;;;;;;;5016023;28;99063;-77
2022/05/20 14:21:33;;;;;;;40.75;26.17;;;;;;;;;;5021061;28;100101;-76
2022/05/20 14:24:05;;;;;;;31.17;22.25;;;;;;;;;;5016290;28;98540;-76
2022/05/20 14:26:33;;;;;;;;;;;;;;;;;;5013467;28;99282;-75
2022/05/20 14:29:00;;;;;;;34.40;22.50;;;;;;;;;;5012129;28;129679;-76
2022/05/20 14:31:35;;;;;;;33.45;22.75;;;;;;;;;;5009726;28;99771;-77
2022/05/20 14:34:20;;;;;;;38.67;24.63;;;;;;;;;;5010704;28;99794;-76
2022/05/20 14:36:47;;;;;;;39.58;26.00;;;;;;;;;;5011056;28;100585;-74
2022/05/20 14:39:16;;;;;;;37.78;25.85;;;;;;;;;;5024277;28;99012;-75
2022/05/20 14:41:43;;;;;;;35.80;25.52;;;;;;;;;;5017129;27;100077;-74
2022/05/20 14:44:13;;;;;;;39.88;25.05;;;;;;;;;;5034294;28;100468;-75
2022/05/20 14:49:31;;;;;;;52.03;31.77;;;;;;;;;;5031104;28;99505;-75
2022/05/20 14:51:58;;;;;;;40.70;27.95;;;;;;;;;;5016203;28;98697;-76
2022/05/20 14:54:27;;;;;;;48.03;28.25;;;;;;;;;;5010766;28;100061;-77
2022/05/20 14:56:54;;;;;;;40.80;25.23;;;;;;;;;;5015171;28;100852;-77
2022/05/20 14:59:33;;;;;;;34.03;25.05;;;;;;;;;;5030711;28;99123;-78
2022/05/20 15:02:00;;;;;;;30.00;22.63;;;;;;;;;;5016980;28;100023;-77
2022/05/20 15:04:26;;;;;;;40.42;25.42;;;;;;;;;;5033144;27;100205;-76
2022/05/20 15:06:55;;;;;;;38.35;25.42;;;;;;;;;;5021623;28;100388;-75
2022/05/20 15:09:23;;;;;;;43.08;25.98;;;;;;;;;;5012507;28;101221;-76
2022/05/20 15:11:51;;;;;;;45.22;28.58;;;;;;;;;;5011243;28;98695;-76
2022/05/20 15:14:17;;;;;;;39.13;25.00;;;;;;;;;;5013061;28;99490;-76
2022/05/20 15:16:44;;;;;;;35.40;25.05;;;;;;;;;;5010829;28;100158;-75
2022/05/20 15:19:11;;;;;;;43.55;29.02;;;;;;;;;;5019850;28;100575;-76
2022/05/20 15:21:39;;;;;;;45.40;31.10;;;;;;;;;;5009947;28;100227;-77
2022/05/20 15:24:07;;;;;;;33.42;25.23;;;;;;;;;;5016274;27;101902;-76
2022/05/20 15:26:35;;;;;;;41.58;30.70;;;;;;;;;;5031111;28;98682;-76